createdAt,value
2023-07-11T00:00:57.445Z,3.60
2023-07-11T00:03:25.007Z,3.92
2023-07-11T00:06:06.077Z,4.05
2023-07-11T00:08:34.042Z,3.83
2023-07-11T00:11:01.413Z,4.10
2023-07-11T00:13:28.922Z,3.97
2023-07-11T00:16:00.855Z,3.92
2023-07-11T00:18:29.083Z,3.92
2023-07-11T00:20:56.930Z,4.15
2023-07-11T00:23:25.430Z,3.97
2023-07-11T00:25:53.091Z,3.63
2023-07-11T00:28:21.132Z,4.28
2023-07-11T00:30:49.431Z,4.18
2023-07-11T00:33:17.161Z,3.92
2023-07-11T00:35:48.784Z,4.13
2023-07-11T00:38:16.184Z,4.00
2023-07-11T00:40:44.856Z,3.90
2023-07-11T00:43:13.768Z,3.70
2023-07-11T00:45:59.937Z,3.65
2023-07-11T00:48:27.553Z,3.78
2023-07-11T00:50:56.090Z,3.90
2023-07-11T00:53:23.640Z,4.20
2023-07-11T00:55:51.029Z,3.67
2023-07-11T00:58:19.878Z,4.13
2023-07-11T01:00:48.945Z,4.03
2023-07-11T01:03:16.658Z,4.03
2023-07-11T01:05:44.277Z,3.80
2023-07-11T01:08:11.998Z,4.05
2023-07-11T01:10:39.352Z,3.90
2023-07-11T01:13:07.144Z,4.35
2023-07-11T01:15:34.581Z,3.92
2023-07-11T01:18:02.514Z,3.88
2023-07-11T01:20:30.518Z,4.05
2023-07-11T01:22:58.367Z,3.65
2023-07-11T01:25:25.781Z,4.20
2023-07-11T01:27:53.229Z,4.00
2023-07-11T01:30:22.133Z,4.10
2023-07-11T01:32:49.772Z,3.85
2023-07-11T01:35:18.828Z,4.55
2023-07-11T01:37:46.481Z,4.50
2023-07-11T01:40:14.025Z,4.53
2023-07-11T01:42:42.128Z,4.60
2023-07-11T01:45:10.979Z,4.20
2023-07-11T01:47:38.660Z,3.70
2023-07-11T01:50:06.389Z,3.85
2023-07-11T01:52:33.789Z,4.28
2023-07-11T01:55:01.257Z,4.60
2023-07-11T01:57:29.100Z,4.13
2023-07-11T01:59:57.106Z,4.10
2023-07-11T02:02:25.829Z,4.07
2023-07-11T02:04:54.189Z,4.32
2023-07-11T02:07:21.599Z,4.00
2023-07-11T02:09:49.019Z,3.70
2023-07-11T02:12:16.472Z,3.75
2023-07-11T02:14:43.841Z,4.60
2023-07-11T02:17:16.151Z,3.92
2023-07-11T02:19:45.832Z,3.92
2023-07-11T02:22:13.546Z,3.95
2023-07-11T02:24:42.023Z,4.13
2023-07-11T02:27:09.993Z,4.32
2023-07-11T02:29:37.403Z,4.45
2023-07-11T02:32:05.221Z,4.55
2023-07-11T02:34:32.577Z,3.97
2023-07-11T02:36:59.961Z,3.90
2023-07-11T02:39:27.309Z,4.35
2023-07-11T02:41:54.804Z,4.50
2023-07-11T02:44:22.347Z,4.57
2023-07-11T02:46:49.739Z,4.55
2023-07-11T02:49:17.496Z,4.72
2023-07-11T02:51:44.963Z,4.55
2023-07-11T02:54:12.356Z,4.90
2023-07-11T02:56:39.759Z,4.93
2023-07-11T02:59:07.134Z,4.65
2023-07-11T03:01:35.633Z,4.78
2023-07-11T03:04:03.601Z,4.35
2023-07-11T03:06:31.328Z,4.55
2023-07-11T03:08:58.683Z,4.30
2023-07-11T03:11:26.205Z,4.50
2023-07-11T03:13:53.590Z,4.63
2023-07-11T03:16:20.980Z,4.90
2023-07-11T03:18:48.338Z,4.65
2023-07-11T03:21:15.756Z,4.70
2023-07-11T03:23:43.073Z,4.55
2023-07-11T03:26:10.702Z,4.63
2023-07-11T03:28:38.053Z,4.90
2023-07-11T03:31:05.858Z,4.45
2023-07-11T03:33:33.840Z,4.88
2023-07-11T03:36:01.286Z,4.50
2023-07-11T03:38:28.656Z,4.28
2023-07-11T03:40:56.658Z,4.85
2023-07-11T03:43:24.026Z,4.80
2023-07-11T03:45:51.541Z,5.38
2023-07-11T03:48:19.307Z,4.88
2023-07-11T03:50:46.669Z,4.70
2023-07-11T03:53:14.818Z,4.60
2023-07-11T03:55:45.151Z,4.90
2023-07-11T03:58:12.616Z,4.60
2023-07-11T04:00:45.092Z,4.43
2023-07-11T04:03:15.000Z,5.30
2023-07-11T04:05:42.882Z,4.72
2023-07-11T04:08:10.409Z,4.82
2023-07-11T04:10:42.080Z,4.65
2023-07-11T04:16:00.920Z,4.43
2023-07-11T04:18:29.438Z,4.78
2023-07-11T04:21:04.688Z,4.72
2023-07-11T04:23:42.108Z,4.50
2023-07-11T04:26:09.518Z,5.10
2023-07-11T04:28:36.877Z,4.97
2023-07-11T04:31:04.481Z,5.25
2023-07-11T04:33:31.915Z,5.20
2023-07-11T04:36:12.821Z,4.78
2023-07-11T04:38:40.545Z,5.30
2023-07-11T04:41:08.288Z,5.07
2023-07-11T04:43:35.903Z,5.03
2023-07-11T04:46:07.279Z,4.95
2023-07-11T04:48:35.259Z,4.88
2023-07-11T04:51:05.783Z,5.00
2023-07-11T04:53:34.055Z,4.72
2023-07-11T04:56:06.984Z,4.45
2023-07-11T04:58:35.238Z,4.57
2023-07-11T05:01:03.341Z,4.63
2023-07-11T05:03:31.004Z,4.78
2023-07-11T05:05:58.767Z,5.15
2023-07-11T05:08:26.306Z,5.05
2023-07-11T05:11:03.911Z,4.97
2023-07-11T05:13:31.972Z,5.05
2023-07-11T05:16:03.673Z,4.80
2023-07-11T05:18:31.585Z,4.53
2023-07-11T05:20:59.876Z,5.03
2023-07-11T05:23:28.571Z,4.43
2023-07-11T05:25:56.273Z,4.93
2023-07-11T05:28:28.169Z,4.70
2023-07-11T05:30:56.757Z,4.85
2023-07-11T05:33:25.423Z,5.18
2023-07-11T05:36:06.774Z,4.88
2023-07-11T05:38:34.361Z,5.00
2023-07-11T05:41:02.036Z,5.15
2023-07-11T05:43:29.798Z,4.95
2023-07-11T05:46:00.764Z,4.93
2023-07-11T05:48:28.161Z,5.53
2023-07-11T05:51:16.477Z,5.25
2023-07-11T05:53:44.364Z,5.10
2023-07-11T05:56:11.694Z,5.13
2023-07-11T05:58:40.741Z,5.47
2023-07-11T06:01:08.355Z,5.70
2023-07-11T06:03:35.858Z,5.20
2023-07-11T06:06:04.202Z,5.35
2023-07-11T06:08:32.537Z,6.30
2023-07-11T06:11:03.540Z,6.57
2023-07-11T06:13:32.097Z,6.05
2023-07-11T06:16:09.446Z,5.65
2023-07-11T06:18:40.233Z,5.93
2023-07-11T06:21:08.473Z,6.15
2023-07-11T06:23:36.202Z,5.85
2023-07-11T06:26:06.417Z,5.50
2023-07-11T06:28:36.066Z,6.03
2023-07-11T06:31:07.561Z,6.10
2023-07-11T06:33:35.770Z,5.93
2023-07-11T06:36:04.358Z,5.63
2023-07-11T06:38:31.735Z,5.50
2023-07-11T06:41:01.457Z,5.15
2023-07-11T06:43:29.622Z,5.18
2023-07-11T06:45:58.255Z,5.30
2023-07-11T06:48:27.089Z,5.07
2023-07-11T06:50:56.399Z,5.57
2023-07-11T06:53:27.712Z,5.47
2023-07-11T06:55:55.285Z,5.45
2023-07-11T06:58:23.091Z,5.10
2023-07-11T07:00:54.703Z,5.18
2023-07-11T07:03:22.230Z,5.57
2023-07-11T07:05:57.515Z,5.32
2023-07-11T07:08:25.425Z,4.97
2023-07-11T07:10:53.299Z,5.40
2023-07-11T07:13:21.488Z,4.63
2023-07-11T07:15:57.571Z,4.78
2023-07-11T07:18:25.632Z,4.72
2023-07-11T07:20:58.049Z,4.90
2023-07-11T07:23:27.231Z,5.18
2023-07-11T07:25:56.250Z,5.20
2023-07-11T07:28:23.967Z,5.40
2023-07-11T07:30:55.209Z,5.28
2023-07-11T07:33:26.952Z,5.25
2023-07-11T07:35:59.276Z,6.18
2023-07-11T07:38:29.210Z,5.85
2023-07-11T07:41:01.725Z,6.15
2023-07-11T07:43:31.031Z,5.47
2023-07-11T07:46:01.521Z,5.32
2023-07-11T07:48:30.058Z,5.30
2023-07-11T07:51:04.951Z,5.32
2023-07-11T07:53:32.890Z,5.28
2023-07-11T07:56:07.150Z,5.43
2023-07-11T08:01:07.437Z,4.72
2023-07-11T08:03:37.423Z,5.43
2023-07-11T08:06:15.481Z,4.93
2023-07-11T08:08:44.712Z,5.10
2023-07-11T08:11:12.887Z,4.32
2023-07-11T08:16:27.422Z,4.28
2023-07-11T08:18:56.823Z,4.70
2023-07-11T08:21:24.578Z,4.68
2023-07-11T08:23:51.882Z,4.55
2023-07-11T08:26:19.267Z,4.43
2023-07-11T08:28:46.830Z,4.15
2023-07-11T08:31:14.224Z,4.28
2023-07-11T08:33:41.813Z,4.13
2023-07-11T08:36:09.213Z,4.13
2023-07-11T08:38:36.978Z,4.03
2023-07-11T08:41:30.798Z,3.70
2023-07-11T08:44:00.642Z,3.97
2023-07-11T08:46:28.960Z,3.95
2023-07-11T08:49:01.506Z,3.47
2023-07-11T08:51:28.850Z,3.83
2023-07-11T08:54:02.356Z,3.53
2023-07-11T08:56:42.661Z,3.75
2023-07-11T08:59:15.511Z,3.87
2023-07-11T09:01:45.813Z,4.00
2023-07-11T09:04:16.405Z,3.78
2023-07-11T09:06:50.768Z,4.28
2023-07-11T09:09:18.742Z,3.65
2023-07-11T09:12:18.529Z,3.58
2023-07-11T09:14:51.926Z,3.72
2023-07-11T09:17:36.615Z,3.72
2023-07-11T09:20:13.391Z,3.42
2023-07-11T09:22:59.666Z,3.58
2023-07-11T09:25:33.756Z,3.90
2023-07-11T09:28:04.549Z,3.47
2023-07-11T09:30:33.952Z,3.50
2023-07-11T09:33:12.030Z,3.40
2023-07-11T09:35:39.960Z,3.15
2023-07-11T09:38:09.362Z,3.60
2023-07-11T09:40:38.881Z,3.35
2023-07-11T09:43:06.670Z,3.78
2023-07-11T09:45:36.275Z,3.20
2023-07-11T09:48:14.420Z,3.20
2023-07-11T09:53:32.502Z,2.90
2023-07-11T09:56:12.682Z,2.97
2023-07-11T09:58:41.512Z,3.20
2023-07-11T10:01:48.327Z,3.00
2023-07-11T10:07:49.272Z,2.92
2023-07-11T10:11:05.716Z,2.70
2023-07-11T10:16:36.818Z,3.00
2023-07-11T10:19:18.804Z,3.53
2023-07-11T10:22:09.420Z,3.38
2023-07-11T10:25:00.582Z,3.58
2023-07-11T10:27:47.954Z,2.83
2023-07-11T10:30:37.074Z,3.20
2023-07-11T10:33:24.892Z,3.67
2023-07-11T10:36:29.123Z,3.45
2023-07-11T10:39:14.945Z,2.80
2023-07-11T10:42:17.591Z,3.10
2023-07-11T10:44:56.440Z,3.38
2023-07-11T10:47:48.086Z,3.40
2023-07-11T10:51:20.096Z,3.40
2023-07-11T10:54:08.110Z,3.47
2023-07-11T10:56:40.417Z,3.50
2023-07-11T10:59:20.603Z,3.45
2023-07-11T11:01:57.507Z,3.78
2023-07-11T11:05:12.206Z,3.45
2023-07-11T11:07:45.533Z,3.28
2023-07-11T11:10:13.625Z,3.45
2023-07-11T11:12:55.756Z,3.30
2023-07-11T11:15:41.316Z,3.20
2023-07-11T11:18:33.910Z,3.25
2023-07-11T11:21:20.487Z,3.30
2023-07-11T11:24:36.002Z,3.13
2023-07-11T11:27:24.366Z,3.40
2023-07-11T11:30:00.059Z,3.20
2023-07-11T11:32:52.438Z,2.80
2023-07-11T11:35:38.114Z,3.28
2023-07-11T11:38:26.915Z,3.33
2023-07-11T11:41:06.553Z,3.70
2023-07-11T11:49:36.551Z,3.08
2023-07-11T11:51:55.739Z,2.80
2023-07-11T11:54:29.622Z,3.05
2023-07-11T11:57:07.887Z,3.13
2023-07-11T11:59:55.649Z,2.88
2023-07-11T12:03:08.265Z,2.85
2023-07-11T12:05:36.118Z,2.65
2023-07-11T12:08:29.050Z,3.08
2023-07-11T12:12:03.131Z,3.05
2023-07-11T12:14:46.035Z,2.92
2023-07-11T12:17:37.041Z,2.70
2023-07-11T12:20:16.264Z,2.63
2023-07-11T12:23:42.354Z,2.70
2023-07-11T12:26:54.059Z,2.70
2023-07-11T12:29:40.559Z,2.78
2023-07-11T12:32:35.713Z,2.60
2023-07-11T12:38:10.460Z,2.58
2023-07-11T12:40:46.425Z,2.40
2023-07-11T12:43:56.194Z,2.38
2023-07-11T12:46:50.196Z,2.47
2023-07-11T12:49:54.078Z,2.70
2023-07-11T12:56:41.875Z,2.33
2023-07-11T12:59:27.245Z,2.60
2023-07-11T13:02:37.611Z,2.53
2023-07-11T13:05:13.120Z,2.45
2023-07-11T13:07:45.291Z,2.63
2023-07-11T13:10:26.000Z,2.50
2023-07-11T13:13:02.805Z,2.38
2023-07-11T13:16:11.628Z,2.58
2023-07-11T13:19:01.250Z,2.53
2023-07-11T13:21:36.112Z,2.45
2023-07-11T13:24:05.200Z,2.03
2023-07-11T13:27:04.550Z,2.30
2023-07-11T13:29:42.902Z,2.42
2023-07-11T13:32:26.238Z,2.58
2023-07-11T13:35:09.576Z,2.63
2023-07-11T13:37:44.451Z,2.50
2023-07-11T13:40:34.088Z,2.30
2023-07-11T13:43:05.064Z,2.35
2023-07-11T13:45:38.125Z,2.70
2023-07-11T13:48:07.178Z,2.95
2023-07-11T13:50:43.583Z,2.53
2023-07-11T13:53:23.789Z,2.72
2023-07-11T13:56:16.293Z,2.22
2023-07-11T13:58:57.657Z,2.55
2023-07-11T14:02:17.074Z,2.58
2023-07-11T14:04:53.972Z,2.70
2023-07-11T14:07:25.391Z,2.53
2023-07-11T14:10:00.503Z,2.30
2023-07-11T14:12:54.960Z,2.47
2023-07-11T14:15:32.595Z,2.58
2023-07-11T14:18:08.219Z,2.38
2023-07-11T14:27:42.471Z,2.00
2023-07-11T14:30:26.378Z,2.17
2023-07-11T14:33:07.695Z,2.30
2023-07-11T14:35:38.513Z,2.00
2023-07-11T14:38:34.904Z,2.03
2023-07-11T14:41:50.134Z,2.03
2023-07-11T14:44:27.600Z,2.10
2023-07-11T14:47:04.234Z,2.10
2023-07-11T14:49:42.405Z,2.10
2023-07-11T14:52:31.126Z,2.00
2023-07-11T14:58:09.767Z,2.00
2023-07-11T15:00:40.484Z,2.20
2023-07-11T15:05:38.192Z,2.13
2023-07-11T15:11:46.400Z,2.40
2023-07-11T15:16:51.567Z,2.50
2023-07-11T15:19:28.525Z,2.35
2023-07-11T15:22:00.720Z,2.22
2023-07-11T15:24:36.275Z,2.30
2023-07-11T15:29:43.478Z,2.30
2023-07-11T15:32:23.250Z,2.50
2023-07-11T15:34:54.736Z,2.53
2023-07-11T15:37:23.794Z,2.60
2023-07-11T15:39:54.751Z,2.60
2023-07-11T15:42:24.580Z,2.30
2023-07-11T15:44:58.453Z,2.45
2023-07-11T15:47:26.410Z,2.72
2023-07-11T15:49:57.177Z,2.65
2023-07-11T15:52:24.894Z,2.95
2023-07-11T15:54:55.719Z,2.70
2023-07-11T15:57:27.738Z,2.42
2023-07-11T16:00:02.582Z,2.80
2023-07-11T16:02:36.375Z,2.63
2023-07-11T16:05:03.751Z,2.85
2023-07-11T16:07:30.993Z,2.80
2023-07-11T16:09:58.369Z,2.83
2023-07-11T16:12:25.816Z,3.00
2023-07-11T16:14:53.221Z,2.53
2023-07-11T16:17:21.400Z,2.80
2023-07-11T16:19:50.114Z,2.58
2023-07-11T16:22:18.771Z,3.20
2023-07-11T16:24:46.393Z,2.72
2023-07-11T16:27:18.678Z,2.60
2023-07-11T16:29:47.178Z,2.40
2023-07-11T16:32:15.244Z,2.50
2023-07-11T16:34:44.984Z,2.85
2023-07-11T16:37:20.404Z,2.83
2023-07-11T16:39:48.744Z,2.50
2023-07-11T16:42:20.947Z,2.70
2023-07-11T16:44:49.402Z,2.53
2023-07-11T16:47:17.113Z,3.03
2023-07-11T16:49:47.683Z,2.80
2023-07-11T16:52:15.268Z,2.65
2023-07-11T16:54:43.170Z,2.50
2023-07-11T16:57:22.879Z,2.80
2023-07-11T16:59:50.237Z,2.83
2023-07-11T17:02:20.791Z,2.72
2023-07-11T17:07:15.401Z,2.60
2023-07-11T17:09:42.689Z,2.72
2023-07-11T17:12:10.786Z,2.72
2023-07-11T17:14:38.207Z,2.78
2023-07-11T17:17:16.461Z,2.80
2023-07-11T17:19:43.836Z,2.70
2023-07-11T17:22:15.725Z,2.85
2023-07-11T17:24:43.781Z,2.70
2023-07-11T17:27:21.086Z,2.88
2023-07-11T17:29:48.491Z,2.70
2023-07-11T17:32:20.698Z,2.67
2023-07-11T17:34:49.069Z,2.65
2023-07-11T17:37:24.534Z,2.60
2023-07-11T17:39:51.982Z,2.80
2023-07-11T17:42:20.056Z,2.50
2023-07-11T17:44:48.112Z,2.78
2023-07-11T17:49:54.341Z,2.92
2023-07-11T17:52:22.968Z,3.00
2023-07-11T17:54:50.257Z,2.90
2023-07-11T17:57:18.934Z,3.30
2023-07-11T17:59:46.396Z,3.17
2023-07-11T18:02:24.725Z,3.20
2023-07-11T18:04:56.766Z,2.95
2023-07-11T18:07:28.226Z,3.13
2023-07-11T18:09:55.540Z,3.45
2023-07-11T18:12:24.099Z,3.40
2023-07-11T18:14:51.482Z,3.05
2023-07-11T18:17:20.400Z,3.38
2023-07-11T18:19:48.297Z,3.20
2023-07-11T18:22:23.578Z,2.80
2023-07-11T18:24:52.541Z,3.20
2023-07-11T18:27:20.854Z,2.90
2023-07-11T18:29:48.492Z,3.10
2023-07-11T18:32:19.762Z,3.13
2023-07-11T18:34:47.942Z,3.20
2023-07-11T18:37:15.622Z,3.10
2023-07-11T18:39:43.563Z,3.17
2023-07-11T18:42:15.587Z,3.30
2023-07-11T18:44:43.364Z,2.97
2023-07-11T18:47:16.302Z,2.92
2023-07-11T18:49:44.230Z,3.20
2023-07-11T18:52:15.964Z,2.83
2023-07-11T18:54:44.265Z,3.50
2023-07-11T18:57:15.500Z,3.25
2023-07-11T18:59:46.485Z,2.80
2023-07-11T19:04:41.515Z,3.33
2023-07-11T19:07:14.213Z,2.97
2023-07-11T19:09:45.458Z,3.03
2023-07-11T19:12:34.045Z,2.92
2023-07-11T19:15:03.264Z,2.80
2023-07-11T19:17:35.394Z,3.03
2023-07-11T19:20:02.898Z,3.20
2023-07-11T19:22:31.454Z,3.40
2023-07-11T19:24:58.976Z,3.47
2023-07-11T19:27:26.550Z,3.22
2023-07-11T19:29:53.855Z,3.40
2023-07-11T19:32:21.190Z,3.28
2023-07-11T19:34:48.488Z,3.20
2023-07-11T19:37:16.622Z,3.05
2023-07-11T19:39:44.455Z,3.08
2023-07-11T19:42:16.863Z,3.45
2023-07-11T19:44:44.216Z,3.30
2023-07-11T19:47:18.696Z,3.33
2023-07-11T19:49:46.044Z,3.70
2023-07-11T19:52:13.592Z,3.60
2023-07-11T19:54:40.933Z,3.58
2023-07-11T19:57:10.560Z,3.28
2023-07-11T19:59:39.960Z,3.50
2023-07-11T20:02:17.973Z,3.60
2023-07-11T20:04:45.756Z,3.28
2023-07-11T20:07:14.348Z,3.35
2023-07-11T20:09:42.713Z,3.90
2023-07-11T20:12:28.771Z,3.60
2023-07-11T20:14:57.055Z,3.55
2023-07-11T20:17:25.873Z,3.65
2023-07-11T20:19:54.079Z,3.70
2023-07-11T20:22:21.530Z,3.60
2023-07-11T20:24:49.313Z,3.70
2023-07-11T20:27:18.252Z,3.92
2023-07-11T20:29:46.209Z,3.50
2023-07-11T20:32:16.615Z,4.00
2023-07-11T20:34:44.591Z,3.63
2023-07-11T20:37:17.547Z,3.80
2023-07-11T20:39:45.485Z,3.92
2023-07-11T20:42:12.951Z,3.78
2023-07-11T20:44:41.371Z,4.15
2023-07-11T20:47:15.094Z,3.75
2023-07-11T20:49:42.620Z,3.80
2023-07-11T20:52:11.902Z,3.65
2023-07-11T20:54:39.472Z,3.70
2023-07-11T20:57:07.508Z,3.80
2023-07-11T20:59:34.825Z,3.83
2023-07-11T21:02:02.138Z,3.83
2023-07-11T21:04:29.488Z,3.83
2023-07-11T21:06:56.827Z,3.70
2023-07-11T21:09:25.971Z,3.90
2023-07-11T21:11:53.314Z,4.40
2023-07-11T21:14:21.222Z,3.40
2023-07-11T21:16:48.631Z,3.90
2023-07-11T21:19:23.761Z,3.92
2023-07-11T21:21:51.102Z,3.30
2023-07-11T21:24:18.400Z,3.92
2023-07-11T21:26:45.715Z,3.50
2023-07-11T21:29:13.895Z,3.97
2023-07-11T21:31:41.870Z,4.20
2023-07-11T21:34:10.041Z,4.00
2023-07-11T21:36:45.750Z,4.07
2023-07-11T21:39:18.437Z,4.10
2023-07-11T21:41:45.861Z,3.83
2023-07-11T21:44:13.629Z,3.53
2023-07-11T21:46:41.196Z,3.53
2023-07-11T21:49:10.197Z,3.70
2023-07-11T21:51:37.493Z,3.95
2023-07-11T21:54:04.914Z,3.78
2023-07-11T21:56:32.646Z,4.05
2023-07-11T21:59:02.620Z,3.95
2023-07-11T22:01:30.365Z,4.07
2023-07-11T22:04:05.017Z,4.00
2023-07-11T22:06:33.857Z,4.03
2023-07-11T22:09:01.404Z,4.55
2023-07-11T22:11:28.853Z,4.55
2023-07-11T22:13:59.551Z,4.20
2023-07-11T22:16:28.508Z,3.80
2023-07-11T22:19:04.277Z,3.70
2023-07-11T22:21:32.537Z,4.20
2023-07-11T22:24:01.087Z,4.28
2023-07-11T22:26:32.438Z,4.85
2023-07-11T22:29:03.272Z,4.30
2023-07-11T22:31:31.094Z,4.10
2023-07-11T22:33:58.701Z,3.83
2023-07-11T22:36:26.124Z,4.00
2023-07-11T22:38:53.395Z,3.97
2023-07-11T22:41:20.759Z,4.00
2023-07-11T22:43:48.499Z,3.92
2023-07-11T22:46:17.684Z,4.00
2023-07-11T22:48:46.179Z,3.72
2023-07-11T22:51:15.074Z,3.90
2023-07-11T22:53:43.193Z,4.25
2023-07-11T22:56:18.877Z,3.95
2023-07-11T22:58:46.175Z,3.72
2023-07-11T23:01:15.117Z,3.78
2023-07-11T23:03:42.677Z,3.92
2023-07-11T23:06:24.523Z,4.45
2023-07-11T23:08:52.500Z,4.25
2023-07-11T23:11:20.481Z,4.05
2023-07-11T23:13:48.263Z,3.70
2023-07-11T23:16:19.251Z,3.50
2023-07-11T23:18:47.062Z,3.80
2023-07-11T23:21:15.021Z,4.10
2023-07-11T23:23:42.405Z,3.90
2023-07-11T23:26:14.162Z,3.80
2023-07-11T23:28:41.842Z,5.30
2023-07-11T23:31:10.645Z,4.55
2023-07-11T23:33:38.886Z,3.83
2023-07-11T23:36:23.006Z,7.35
2023-07-11T23:38:51.147Z,2.58
2023-07-11T23:41:18.624Z,1.70
2023-07-11T23:43:46.554Z,1.50
2023-07-11T23:46:21.595Z,1.70
2023-07-11T23:48:50.187Z,4.13
2023-07-11T23:51:17.795Z,3.22
2023-07-11T23:53:46.232Z,3.20
2023-07-11T23:56:22.523Z,2.17
2023-07-11T23:58:50.371Z,2.00
